createdAt,value
2023-11-08T00:01:28.839Z,99607.22
2023-11-08T00:04:51.091Z,99602.84
2023-11-08T00:08:12.773Z,99595.75
2023-11-08T00:11:37.274Z,99599.13
2023-11-08T00:14:59.097Z,99597.34
2023-11-08T00:18:20.823Z,99601.56
2023-11-08T00:21:42.755Z,99591.09
2023-11-08T00:25:04.601Z,99585.19
2023-11-08T00:28:27.856Z,99591.94
2023-11-08T00:31:50.384Z,99588.19
2023-11-08T00:35:12.190Z,99594.91
2023-11-08T00:38:33.876Z,99577.06
2023-11-08T00:41:55.614Z,99586.88
2023-11-08T00:45:19.955Z,99583.53
2023-11-08T00:48:41.883Z,99586.81
2023-11-08T00:52:04.218Z,99580.84
2023-11-08T00:55:26.079Z,99575.03
2023-11-08T00:58:48.011Z,99586.81
2023-11-08T01:02:11.249Z,99588.72
2023-11-08T01:05:33.593Z,99591.22
2023-11-08T01:08:55.088Z,99605.03
2023-11-08T01:12:16.935Z,99603.25
2023-11-08T01:15:38.856Z,99605.78
2023-11-08T01:19:02.191Z,99597.13
2023-11-08T01:22:24.807Z,99606.53
2023-11-08T01:25:48.304Z,99603.09
2023-11-08T01:29:10.073Z,99608.25
2023-11-08T01:32:32.604Z,99590.50
2023-11-08T01:35:55.722Z,99606.00
2023-11-08T01:39:17.361Z,99587.31
2023-11-08T01:42:39.280Z,99613.75
2023-11-08T01:46:07.446Z,99611.06
2023-11-08T01:49:30.090Z,99611.06
2023-11-08T01:52:53.439Z,99602.56
2023-11-08T01:56:17.469Z,99610.06
2023-11-08T01:59:38.982Z,99609.22
2023-11-08T02:03:01.029Z,99610.00
2023-11-08T02:06:23.137Z,99600.44
2023-11-08T02:09:47.143Z,99604.81
2023-11-08T02:13:09.627Z,99607.41
2023-11-08T02:16:32.719Z,99616.88
2023-11-08T02:19:54.289Z,99614.34
2023-11-08T02:23:16.116Z,99614.44
2023-11-08T02:26:40.882Z,99606.09
2023-11-08T02:30:04.656Z,99614.59
2023-11-08T02:33:27.298Z,99617.09
2023-11-08T02:36:50.680Z,99617.19
2023-11-08T02:40:13.920Z,99617.03
2023-11-08T02:43:37.703Z,99613.66
2023-11-08T02:46:59.841Z,99602.72
2023-11-08T02:50:21.334Z,99620.47
2023-11-08T02:53:42.935Z,99618.81
2023-11-08T02:57:05.187Z,99623.84
2023-11-08T03:00:28.572Z,99621.41
2023-11-08T03:03:51.464Z,99630.72
2023-11-08T03:07:13.832Z,99624.69
2023-11-08T03:10:36.895Z,99622.78
2023-11-08T03:13:59.472Z,99625.38
2023-11-08T03:17:23.009Z,99625.31
2023-11-08T03:20:44.671Z,99618.50
2023-11-08T03:24:07.179Z,99632.19
2023-11-08T03:27:28.823Z,99623.69
2023-11-08T03:30:50.443Z,99623.59
2023-11-08T03:34:14.263Z,99623.59
2023-11-08T03:37:39.405Z,99628.91
2023-11-08T03:41:02.471Z,99627.34
2023-11-08T03:44:26.872Z,99634.09
2023-11-08T03:47:48.557Z,99636.63
2023-11-08T03:51:12.733Z,99628.75
2023-11-08T03:54:34.612Z,99627.03
2023-11-08T03:57:56.856Z,99604.19
2023-11-08T04:01:19.074Z,99627.59
2023-11-08T04:04:40.797Z,99614.03
2023-11-08T04:08:05.363Z,99621.63
2023-11-08T04:11:27.366Z,99623.28
2023-11-08T04:14:49.094Z,99624.22
2023-11-08T04:18:10.752Z,99609.00
2023-11-08T04:21:32.543Z,99614.03
2023-11-08T04:24:56.074Z,99614.03
2023-11-08T04:28:18.994Z,99614.97
2023-11-08T04:31:40.960Z,99620.69
2023-11-08T04:35:03.006Z,99625.00
2023-11-08T04:38:24.983Z,99630.22
2023-11-08T04:41:48.082Z,99599.81
2023-11-08T04:45:10.583Z,99624.06
2023-11-08T04:48:32.281Z,99619.72
2023-11-08T04:51:54.411Z,99628.28
2023-11-08T04:55:16.500Z,99625.69
2023-11-08T04:58:39.938Z,99624.91
2023-11-08T05:02:01.799Z,99631.03
2023-11-08T05:05:23.886Z,99626.88
2023-11-08T05:08:46.162Z,99634.00
2023-11-08T05:12:08.908Z,99627.50
2023-11-08T05:15:32.124Z,99642.81
2023-11-08T05:18:54.022Z,99644.72
2023-11-08T05:22:16.209Z,99642.06
2023-11-08T05:25:40.850Z,99644.66
2023-11-08T05:29:02.829Z,99642.22
2023-11-08T05:32:26.222Z,99637.16
2023-11-08T05:35:47.872Z,99642.22
2023-11-08T05:39:09.762Z,99632.78
2023-11-08T05:42:31.527Z,99641.34
2023-11-08T05:45:53.514Z,99649.16
2023-11-08T05:49:16.643Z,99651.69
2023-11-08T05:52:38.663Z,99649.94
2023-11-08T05:56:00.525Z,99640.59
2023-11-08T05:59:22.464Z,99638.84
2023-11-08T06:02:44.015Z,99657.72
2023-11-08T06:06:07.707Z,99656.75
2023-11-08T06:09:29.771Z,99659.34
2023-11-08T06:12:51.917Z,99655.91
2023-11-08T06:16:14.206Z,99656.69
2023-11-08T06:19:35.923Z,99662.63
2023-11-08T06:22:59.153Z,99658.28
2023-11-08T06:26:20.990Z,99660.72
2023-11-08T06:29:42.462Z,99662.44
2023-11-08T06:33:05.088Z,99666.69
2023-11-08T06:36:26.778Z,99666.84
2023-11-08T06:39:50.191Z,99679.56
2023-11-08T06:43:13.241Z,99677.78
2023-11-08T06:46:35.473Z,99682.94
2023-11-08T06:49:58.285Z,99673.50
2023-11-08T06:53:20.420Z,99681.06
2023-11-08T06:56:43.555Z,99683.53
2023-11-08T07:00:08.493Z,99683.47
2023-11-08T07:03:30.483Z,99690.28
2023-11-08T07:06:52.379Z,99691.13
2023-11-08T07:10:14.848Z,99687.75
2023-11-08T07:13:39.087Z,99698.69
2023-11-08T07:17:01.264Z,99694.25
2023-11-08T07:20:23.601Z,99698.53
2023-11-08T07:23:45.629Z,99700.09
2023-11-08T07:27:08.156Z,99696.56
2023-11-08T07:30:31.592Z,99705.75
2023-11-08T07:33:53.940Z,99705.50
2023-11-08T07:37:15.994Z,99695.34
2023-11-08T07:40:38.044Z,99692.13
2023-11-08T07:43:59.839Z,99711.66
2023-11-08T07:47:23.191Z,99714.00
2023-11-08T07:50:45.096Z,99722.44
2023-11-08T07:54:07.171Z,99715.25
2023-11-08T07:57:28.853Z,99719.97
2023-11-08T08:00:51.499Z,99714.63
2023-11-08T08:04:14.719Z,99724.78
2023-11-08T08:07:36.891Z,99724.63
2023-11-08T08:10:58.520Z,99732.13
2023-11-08T08:14:20.871Z,99728.47
2023-11-08T08:17:46.922Z,99738.00
2023-11-08T08:21:11.948Z,99742.38
2023-11-08T08:24:33.692Z,99745.00
2023-11-08T08:27:55.542Z,99741.53
2023-11-08T08:31:17.802Z,99744.16
2023-11-08T08:34:40.246Z,99750.03
2023-11-08T08:38:04.133Z,99738.78
2023-11-08T08:41:25.932Z,99745.28
2023-11-08T08:44:48.385Z,99748.56
2023-11-08T08:48:10.525Z,99746.25
2023-11-08T08:51:32.311Z,99739.63
2023-11-08T08:54:55.675Z,99739.63
2023-11-08T08:58:18.326Z,99742.91
2023-11-08T09:01:40.296Z,99743.00
2023-11-08T09:05:02.162Z,99737.22
2023-11-08T09:08:24.123Z,99733.47
2023-11-08T09:11:47.450Z,99735.66
2023-11-08T09:15:12.475Z,99731.53
2023-11-08T09:18:34.258Z,99731.25
2023-11-08T09:21:56.398Z,99728.97
2023-11-08T09:25:18.312Z,99734.78
2023-11-08T09:28:41.515Z,99742.50
2023-11-08T09:32:05.332Z,99739.00
2023-11-08T09:35:26.987Z,99739.53
2023-11-08T09:38:49.285Z,99747.75
2023-11-08T09:42:12.423Z,99744.91
2023-11-08T09:45:35.559Z,99741.47
2023-11-08T09:48:59.392Z,99739.03
2023-11-08T09:52:22.362Z,99740.97
2023-11-08T09:55:44.353Z,99742.97
2023-11-08T09:59:07.127Z,99737.13
2023-11-08T10:02:30.814Z,99744.13
2023-11-08T10:05:52.636Z,99729.41
2023-11-08T10:09:14.876Z,99732.22
2023-11-08T10:12:37.042Z,99729.84
2023-11-08T10:16:02.193Z,99722.34
2023-11-08T10:19:44.520Z,99715.66
2023-11-08T10:23:09.160Z,99712.72
2023-11-08T10:26:34.742Z,99700.94
2023-11-08T10:30:15.247Z,99729.63
2023-11-08T10:33:36.776Z,99731.16
2023-11-08T10:36:59.872Z,99728.72
2023-11-08T10:40:22.580Z,99736.72
2023-11-08T10:43:45.001Z,99732.69
2023-11-08T10:47:07.239Z,99740.63
2023-11-08T10:50:29.869Z,99726.97
2023-11-08T10:53:53.790Z,99734.63
2023-11-08T10:57:17.082Z,99730.34
2023-11-08T11:00:39.448Z,99734.56
2023-11-08T11:04:06.254Z,99732.69
2023-11-08T11:07:28.775Z,99730.84
2023-11-08T11:10:51.770Z,99728.50
2023-11-08T11:14:22.245Z,99734.47
2023-11-08T11:17:50.175Z,99723.44
2023-11-08T11:21:18.242Z,99741.13
2023-11-08T11:24:44.280Z,99739.25
2023-11-08T11:28:07.888Z,99740.78
2023-11-08T11:31:36.789Z,99744.34
2023-11-08T11:34:59.053Z,99734.56
2023-11-08T11:38:28.265Z,99736.06
2023-11-08T11:41:50.017Z,99742.94
2023-11-08T11:45:13.825Z,99744.91
2023-11-08T11:48:36.669Z,99748.16
2023-11-08T11:51:58.403Z,99732.34
2023-11-08T11:55:22.176Z,99740.94
2023-11-08T11:58:44.450Z,99735.13
2023-11-08T12:02:09.788Z,99740.44
2023-11-08T12:05:31.729Z,99740.69
2023-11-08T12:08:53.736Z,99731.44
2023-11-08T12:12:15.920Z,99732.84
2023-11-08T12:15:37.850Z,99735.56
2023-11-08T12:19:01.325Z,99732.03
2023-11-08T12:22:24.269Z,99739.19
2023-11-08T12:25:47.090Z,99717.22
2023-11-08T12:29:10.419Z,99738.34
2023-11-08T12:32:32.263Z,99754.78
2023-11-08T12:35:55.665Z,99750.56
2023-11-08T12:39:23.941Z,99744.91
2023-11-08T12:42:47.677Z,99752.75
2023-11-08T12:46:36.806Z,99763.25
2023-11-08T12:49:53.478Z,99765.44
2023-11-08T12:53:16.534Z,99770.47
2023-11-08T12:56:42.474Z,99779.34
2023-11-08T13:00:04.351Z,99753.97
2023-11-08T13:03:28.471Z,99758.00
2023-11-08T13:06:51.176Z,99751.13
2023-11-08T13:10:14.391Z,99749.50
2023-11-08T13:13:37.226Z,99748.56
2023-11-08T13:16:58.998Z,99726.84
2023-11-08T13:20:21.258Z,99754.78
2023-11-08T13:24:01.951Z,99746.97
2023-11-08T13:27:27.537Z,99735.09
2023-11-08T13:30:50.007Z,99735.25
2023-11-08T13:34:12.017Z,99732.22
2023-11-08T13:37:34.123Z,99743.38
2023-11-08T13:40:57.997Z,99740.03
2023-11-08T13:44:21.165Z,99741.09
2023-11-08T13:47:42.817Z,99741.88
2023-11-08T13:51:07.711Z,99750.53
2023-11-08T13:54:29.487Z,99748.00
2023-11-08T13:57:51.300Z,99750.63
2023-11-08T14:01:18.029Z,99749.78
2023-11-08T14:04:40.361Z,99746.47
2023-11-08T14:08:03.724Z,99755.06
2023-11-08T14:11:26.806Z,99753.53
2023-11-08T14:14:49.939Z,99752.59
2023-11-08T14:18:14.294Z,99745.09
2023-11-08T14:21:36.405Z,99723.28
2023-11-08T14:24:58.585Z,99746.94
2023-11-08T14:28:20.965Z,99747.91
2023-11-08T14:31:42.846Z,99748.00
2023-11-08T14:35:07.892Z,99749.78
2023-11-08T14:38:30.460Z,99755.06
2023-11-08T14:41:52.894Z,99744.72
2023-11-08T14:45:15.338Z,99746.41
2023-11-08T14:48:37.495Z,99745.41
2023-11-08T14:52:01.726Z,99746.34
2023-11-08T14:55:23.771Z,99744.78
2023-11-08T14:58:46.382Z,99742.34
2023-11-08T15:02:08.742Z,99744.03
2023-11-08T15:05:30.730Z,99713.88
2023-11-08T15:09:51.483Z,99726.19
2023-11-08T15:12:36.725Z,99731.41
2023-11-08T15:15:59.042Z,99729.63
2023-11-08T15:19:21.625Z,99736.59
2023-11-08T15:22:44.159Z,99728.78
2023-11-08T15:26:07.939Z,99727.81
2023-11-08T15:29:30.219Z,99743.50
2023-11-08T15:32:52.402Z,99730.63
2023-11-08T15:36:14.798Z,99731.41
2023-11-08T15:39:36.860Z,99742.81
2023-11-08T15:43:01.265Z,99732.09
2023-11-08T15:46:26.779Z,99743.09
2023-11-08T15:49:48.895Z,99748.31
2023-11-08T15:53:10.936Z,99729.88
2023-11-08T15:56:33.024Z,99743.41
2023-11-08T15:59:57.733Z,99751.16
2023-11-08T16:03:20.073Z,99735.75
2023-11-08T16:06:42.460Z,99745.34
2023-11-08T16:10:04.566Z,99735.28
2023-11-08T16:13:27.185Z,99736.16
2023-11-08T16:16:50.447Z,99730.16
2023-11-08T16:20:14.124Z,99742.34
2023-11-08T16:23:36.589Z,99741.56
2023-11-08T16:26:58.959Z,99749.63
2023-11-08T16:30:59.154Z,99740.25
2023-11-08T16:34:04.924Z,99740.50
2023-11-08T16:37:27.364Z,99744.91
2023-11-08T16:40:49.479Z,99717.97
2023-11-08T16:44:13.355Z,99749.34
2023-11-08T16:47:36.390Z,99751.34
2023-11-08T16:50:59.906Z,99740.22
2023-11-08T16:54:22.271Z,99752.94
2023-11-08T16:57:44.670Z,99748.88
2023-11-08T17:01:07.012Z,99755.81
2023-11-08T17:04:29.157Z,99755.97
2023-11-08T17:07:52.587Z,99760.28
2023-11-08T17:11:14.274Z,99758.72
2023-11-08T17:14:36.339Z,99719.13
2023-11-08T17:17:58.378Z,99742.25
2023-11-08T17:21:20.453Z,99751.56
2023-11-08T17:24:44.766Z,99750.09
2023-11-08T17:28:07.039Z,99756.41
2023-11-08T17:31:30.112Z,99754.94
2023-11-08T17:34:53.179Z,99765.44
2023-11-08T17:38:15.073Z,99759.72
2023-11-08T17:41:38.356Z,99761.53
2023-11-08T17:45:00.789Z,99757.41
2023-11-08T17:48:23.453Z,99763.72
2023-11-08T17:51:45.487Z,99763.94
2023-11-08T17:55:08.365Z,99766.81
2023-11-08T17:58:31.467Z,99763.56
2023-11-08T18:01:53.075Z,99757.59
2023-11-08T18:05:15.817Z,99752.16
2023-11-08T18:08:37.751Z,99765.88
2023-11-08T18:11:59.681Z,99768.63
2023-11-08T18:15:23.037Z,99781.81
2023-11-08T18:18:45.728Z,99766.63
2023-11-08T18:22:07.906Z,99778.66
2023-11-08T18:25:30.018Z,99774.56
2023-11-08T18:28:52.124Z,99772.84
2023-11-08T18:32:15.441Z,99774.56
2023-11-08T18:35:37.718Z,99780.34
2023-11-08T18:38:59.608Z,99778.44
2023-11-08T18:42:21.746Z,99783.50
2023-11-08T18:45:43.903Z,99772.94
2023-11-08T18:49:07.335Z,99769.59
2023-11-08T18:52:29.500Z,99782.13
2023-11-08T18:55:51.458Z,99778.56
2023-11-08T18:59:13.638Z,99763.28
2023-11-08T19:02:35.617Z,99788.72
2023-11-08T19:05:59.066Z,99779.34
2023-11-08T19:09:21.374Z,99780.13
2023-11-08T19:12:44.344Z,99785.19
2023-11-08T19:16:09.813Z,99780.09
2023-11-08T19:19:32.303Z,99786.81
2023-11-08T19:23:00.534Z,99784.16
2023-11-08T19:26:25.680Z,99784.88
2023-11-08T19:29:47.790Z,99784.72
2023-11-08T19:33:10.229Z,99778.75
2023-11-08T19:36:32.221Z,99782.06
2023-11-08T19:39:55.357Z,99766.03
2023-11-08T19:43:17.637Z,99784.66
2023-11-08T19:46:39.581Z,99786.41
2023-11-08T19:50:01.737Z,99789.78
2023-11-08T19:53:23.524Z,99793.22
2023-11-08T19:56:46.809Z,99796.66
2023-11-08T20:00:12.279Z,99796.63
2023-11-08T20:03:34.406Z,99795.75
2023-11-08T20:06:56.124Z,99801.69
2023-11-08T20:10:18.533Z,99797.31
2023-11-08T20:13:42.157Z,99799.00
2023-11-08T20:17:04.056Z,99796.25
2023-11-08T20:20:25.872Z,99786.97
2023-11-08T20:23:47.747Z,99787.75
2023-11-08T20:27:09.859Z,99791.84
2023-11-08T20:30:33.150Z,99795.19
2023-11-08T20:33:55.032Z,99797.59
2023-11-08T20:37:17.198Z,99796.63
2023-11-08T20:40:38.970Z,99802.66
2023-11-08T20:44:01.152Z,99801.75
2023-11-08T20:47:24.137Z,99806.09
2023-11-08T20:50:45.872Z,99800.84
2023-11-08T20:54:08.815Z,99793.19
2023-11-08T20:57:33.266Z,99797.38
2023-11-08T21:00:55.491Z,99789.03
2023-11-08T21:04:19.123Z,99793.25
2023-11-08T21:07:41.202Z,99803.31
2023-11-08T21:11:04.549Z,99795.56
2023-11-08T21:14:26.546Z,99794.72
2023-11-08T21:17:48.619Z,99800.56
2023-11-08T21:21:12.024Z,99803.94
2023-11-08T21:24:33.804Z,99800.47
2023-11-08T21:27:56.463Z,99796.91
2023-11-08T21:31:18.521Z,99792.63
2023-11-08T21:34:42.167Z,99793.25
2023-11-08T21:38:05.634Z,99793.47
2023-11-08T21:41:27.681Z,99801.03
2023-11-08T21:44:49.845Z,99794.94
2023-11-08T21:48:11.648Z,99798.38
2023-11-08T21:51:33.565Z,99798.38
2023-11-08T21:54:56.644Z,99802.66
2023-11-08T21:58:18.733Z,99792.34
2023-11-08T22:01:46.007Z,99794.88
2023-11-08T22:05:09.551Z,99799.09
2023-11-08T22:08:31.399Z,99808.66
2023-11-08T22:11:54.825Z,99796.56
2023-11-08T22:15:17.285Z,99801.00
2023-11-08T22:18:39.806Z,99801.81
2023-11-08T22:22:01.756Z,99807.88
2023-11-08T22:25:23.732Z,99802.81
2023-11-08T22:28:47.054Z,99803.72
2023-11-08T22:32:09.676Z,99810.56
2023-11-08T22:35:31.559Z,99803.59
2023-11-08T22:38:54.350Z,99799.22
2023-11-08T22:42:16.112Z,99805.25
2023-11-08T22:45:39.490Z,99804.44
2023-11-08T22:49:01.296Z,99796.75
2023-11-08T22:52:23.838Z,99801.81
2023-11-08T22:55:45.662Z,99809.63
2023-11-08T22:59:07.414Z,99808.78
2023-11-08T23:02:31.659Z,99806.25
2023-11-08T23:05:54.944Z,99805.53
2023-11-08T23:09:17.275Z,99804.66
2023-11-08T23:12:39.501Z,99800.28
2023-11-08T23:16:01.377Z,99802.19
2023-11-08T23:19:24.929Z,99802.94
2023-11-08T23:22:49.649Z,99804.72
2023-11-08T23:26:11.539Z,99804.72
2023-11-08T23:29:33.226Z,99801.28
2023-11-08T23:32:55.801Z,99799.44
2023-11-08T23:36:19.092Z,99797.69
2023-11-08T23:39:40.821Z,99801.19
2023-11-08T23:43:02.693Z,99805.53
2023-11-08T23:46:24.635Z,99790.31
2023-11-08T23:49:46.508Z,99800.28
2023-11-08T23:53:09.966Z,99798.81
2023-11-08T23:56:31.944Z,99794.41
2023-11-08T23:59:54.623Z,99800.34
